sensor_id;sensor_type;location;lat;lon;timestamp;pressure;altitude;pressure_sealevel;temperature;humidity
72370;BME280;60343;-32.030;115.880;2023-12-14T00:02:24;101845.75;;;26.05;43.08
72370;BME280;60343;-32.030;115.880;2023-12-14T00:05:05;101841.25;;;26.32;42.53
72370;BME280;60343;-32.030;115.880;2023-12-14T00:07:42;101846.88;;;26.59;41.77
72370;BME280;60343;-32.030;115.880;2023-12-14T00:10:17;101851.75;;;26.74;41.46
72370;BME280;60343;-32.030;115.880;2023-12-14T00:12:52;101849.31;;;26.94;41.72
72370;BME280;60343;-32.030;115.880;2023-12-14T00:15:27;101842.13;;;27.15;41.32
72370;BME280;60343;-32.030;115.880;2023-12-14T00:18:02;101831.72;;;27.44;40.37
72370;BME280;60343;-32.030;115.880;2023-12-14T00:20:44;101836.00;;;27.56;39.84
72370;BME280;60343;-32.030;115.880;2023-12-14T00:23:19;101830.31;;;27.68;39.80
72370;BME280;60343;-32.030;115.880;2023-12-14T00:25:54;101832.81;;;27.69;39.37
72370;BME280;60343;-32.030;115.880;2023-12-14T00:28:29;101825.59;;;27.63;39.35
72370;BME280;60343;-32.030;115.880;2023-12-14T00:31:04;101833.75;;;27.53;39.60
72370;BME280;60343;-32.030;115.880;2023-12-14T00:33:39;101831.84;;;27.54;39.46
72370;BME280;60343;-32.030;115.880;2023-12-14T00:36:25;101819.50;;;27.88;39.78
72370;BME280;60343;-32.030;115.880;2023-12-14T00:39:00;101823.81;;;28.11;39.43
72370;BME280;60343;-32.030;115.880;2023-12-14T00:41:35;101814.59;;;28.32;38.55
72370;BME280;60343;-32.030;115.880;2023-12-14T00:44:10;101820.22;;;28.10;38.77
72370;BME280;60343;-32.030;115.880;2023-12-14T00:46:45;101815.19;;;28.02;39.22
72370;BME280;60343;-32.030;115.880;2023-12-14T00:49:21;101812.88;;;28.16;39.02
72370;BME280;60343;-32.030;115.880;2023-12-14T00:52:02;101806.47;;;28.57;38.28
72370;BME280;60343;-32.030;115.880;2023-12-14T00:54:37;101812.34;;;28.71;37.68
72370;BME280;60343;-32.030;115.880;2023-12-14T00:57:12;101809.56;;;28.61;37.61
72370;BME280;60343;-32.030;115.880;2023-12-14T00:59:47;101808.28;;;28.84;37.30
72370;BME280;60343;-32.030;115.880;2023-12-14T01:02:23;101808.31;;;28.94;36.88
72370;BME280;60343;-32.030;115.880;2023-12-14T01:04:58;101805.38;;;29.16;37.50
72370;BME280;60343;-32.030;115.880;2023-12-14T01:07:39;101796.06;;;29.37;36.03
72370;BME280;60343;-32.030;115.880;2023-12-14T01:10:14;101802.72;;;29.66;36.35
72370;BME280;60343;-32.030;115.880;2023-12-14T01:12:50;101798.28;;;29.85;35.91
72370;BME280;60343;-32.030;115.880;2023-12-14T01:15:25;101802.97;;;29.65;35.44
72370;BME280;60343;-32.030;115.880;2023-12-14T01:18:00;101797.47;;;29.70;36.09
72370;BME280;60343;-32.030;115.880;2023-12-14T01:20:35;101793.88;;;30.00;35.89
72370;BME280;60343;-32.030;115.880;2023-12-14T01:23:16;101799.88;;;30.42;34.77
72370;BME280;60343;-32.030;115.880;2023-12-14T01:25:51;101801.50;;;30.58;34.49
72370;BME280;60343;-32.030;115.880;2023-12-14T01:28:26;101801.91;;;29.96;34.85
72370;BME280;60343;-32.030;115.880;2023-12-14T01:31:01;101801.31;;;29.74;36.02
72370;BME280;60343;-32.030;115.880;2023-12-14T01:33:37;101788.91;;;29.87;36.13
72370;BME280;60343;-32.030;115.880;2023-12-14T01:36:19;101791.09;;;30.10;35.48
72370;BME280;60343;-32.030;115.880;2023-12-14T01:39:00;101780.34;;;30.03;34.73
72370;BME280;60343;-32.030;115.880;2023-12-14T01:41:35;101788.31;;;30.20;35.54
72370;BME280;60343;-32.030;115.880;2023-12-14T01:44:10;101788.31;;;30.25;34.81
72370;BME280;60343;-32.030;115.880;2023-12-14T01:46:45;101782.56;;;30.01;34.97
72370;BME280;60343;-32.030;115.880;2023-12-14T01:49:20;101780.06;;;29.95;34.88
72370;BME280;60343;-32.030;115.880;2023-12-14T01:51:55;101790.28;;;29.54;35.79
72370;BME280;60343;-32.030;115.880;2023-12-14T01:54:36;101782.56;;;29.46;35.96
72370;BME280;60343;-32.030;115.880;2023-12-14T01:57:11;101772.34;;;29.66;36.00
72370;BME280;60343;-32.030;115.880;2023-12-14T01:59:46;101780.31;;;29.88;36.26
72370;BME280;60343;-32.030;115.880;2023-12-14T02:02:22;101771.50;;;29.81;36.07
72370;BME280;60343;-32.030;115.880;2023-12-14T02:04:57;101766.81;;;29.87;35.29
72370;BME280;60343;-32.030;115.880;2023-12-14T02:07:32;101769.84;;;29.85;36.08
72370;BME280;60343;-32.030;115.880;2023-12-14T02:10:14;101774.25;;;30.16;36.20
72370;BME280;60343;-32.030;115.880;2023-12-14T02:12:49;101780.84;;;30.31;35.18
72370;BME280;60343;-32.030;115.880;2023-12-14T02:15:24;101781.09;;;30.39;35.00
72370;BME280;60343;-32.030;115.880;2023-12-14T02:17:59;101775.25;;;30.56;34.36
72370;BME280;60343;-32.030;115.880;2023-12-14T02:20:34;101772.78;;;30.44;34.06
72370;BME280;60343;-32.030;115.880;2023-12-14T02:23:15;101774.19;;;30.37;34.01
72370;BME280;60343;-32.030;115.880;2023-12-14T02:25:51;101770.84;;;30.45;34.66
72370;BME280;60343;-32.030;115.880;2023-12-14T02:28:26;101772.78;;;30.54;34.27
72370;BME280;60343;-32.030;115.880;2023-12-14T02:31:01;101770.00;;;30.54;34.76
72370;BME280;60343;-32.030;115.880;2023-12-14T02:33:36;101764.22;;;30.46;34.42
72370;BME280;60343;-32.030;115.880;2023-12-14T02:36:11;101763.69;;;30.28;34.69
72370;BME280;60343;-32.030;115.880;2023-12-14T02:38:52;101751.28;;;30.31;34.51
72370;BME280;60343;-32.030;115.880;2023-12-14T02:41:27;101753.81;;;30.22;35.32
72370;BME280;60343;-32.030;115.880;2023-12-14T02:44:02;101747.44;;;30.27;34.79
72370;BME280;60343;-32.030;115.880;2023-12-14T02:46:37;101754.53;;;30.43;35.54
72370;BME280;60343;-32.030;115.880;2023-12-14T02:49:12;101750.50;;;30.85;33.67
72370;BME280;60343;-32.030;115.880;2023-12-14T02:51:48;101751.75;;;31.18;33.11
72370;BME280;60343;-32.030;115.880;2023-12-14T02:54:29;101744.81;;;31.15;32.62
72370;BME280;60343;-32.030;115.880;2023-12-14T02:57:04;101739.34;;;31.05;32.23
72370;BME280;60343;-32.030;115.880;2023-12-14T02:59:41;101742.94;;;31.05;33.04
72370;BME280;60343;-32.030;115.880;2023-12-14T03:02:16;101740.00;;;31.31;32.06
72370;BME280;60343;-32.030;115.880;2023-12-14T03:04:51;101735.81;;;31.38;32.58
72370;BME280;60343;-32.030;115.880;2023-12-14T03:07:26;101734.25;;;31.56;33.23
72370;BME280;60343;-32.030;115.880;2023-12-14T03:10:08;101732.94;;;31.82;31.35
72370;BME280;60343;-32.030;115.880;2023-12-14T03:12:43;101733.28;;;31.42;31.58
72370;BME280;60343;-32.030;115.880;2023-12-14T03:15:19;101729.22;;;31.29;32.58
72370;BME280;60343;-32.030;115.880;2023-12-14T03:17:54;101718.06;;;31.39;32.10
72370;BME280;60343;-32.030;115.880;2023-12-14T03:20:31;101716.44;;;31.38;31.81
72370;BME280;60343;-32.030;115.880;2023-12-14T03:23:06;101718.06;;;31.39;31.71
72370;BME280;60343;-32.030;115.880;2023-12-14T03:25:47;101716.22;;;31.30;31.08
72370;BME280;60343;-32.030;115.880;2023-12-14T03:28:22;101702.28;;;31.40;32.38
72370;BME280;60343;-32.030;115.880;2023-12-14T03:30:57;101698.09;;;31.47;32.82
72370;BME280;60343;-32.030;115.880;2023-12-14T03:33:32;101699.63;;;31.64;31.62
72370;BME280;60343;-32.030;115.880;2023-12-14T03:36:08;101694.56;;;31.71;32.11
72370;BME280;60343;-32.030;115.880;2023-12-14T03:38:43;101690.63;;;31.77;31.85
72370;BME280;60343;-32.030;115.880;2023-12-14T03:41:24;101694.84;;;31.69;31.26
72370;BME280;60343;-32.030;115.880;2023-12-14T03:43:59;101692.63;;;31.95;29.82
72370;BME280;60343;-32.030;115.880;2023-12-14T03:46:35;101685.47;;;31.94;30.52
72370;BME280;60343;-32.030;115.880;2023-12-14T03:49:10;101686.75;;;32.02;30.27
72370;BME280;60343;-32.030;115.880;2023-12-14T03:51:45;101670.88;;;32.12;29.79
72370;BME280;60343;-32.030;115.880;2023-12-14T03:54:20;101668.03;;;31.93;30.46
72370;BME280;60343;-32.030;115.880;2023-12-14T03:57:01;101668.13;;;31.83;29.05
72370;BME280;60343;-32.030;115.880;2023-12-14T03:59:40;101660.56;;;31.65;30.36
72370;BME280;60343;-32.030;115.880;2023-12-14T04:02:16;101655.84;;;31.66;31.44
72370;BME280;60343;-32.030;115.880;2023-12-14T04:04:51;101643.91;;;31.94;29.90
72370;BME280;60343;-32.030;115.880;2023-12-14T04:07:26;101640.84;;;32.19;30.21
72370;BME280;60343;-32.030;115.880;2023-12-14T04:10:01;101632.25;;;32.40;30.25
72370;BME280;60343;-32.030;115.880;2023-12-14T04:12:42;101636.03;;;32.49;29.98
72370;BME280;60343;-32.030;115.880;2023-12-14T04:15:17;101640.06;;;32.38;29.23
72370;BME280;60343;-32.030;115.880;2023-12-14T04:17:52;101646.25;;;32.29;29.79
72370;BME280;60343;-32.030;115.880;2023-12-14T04:20:27;101633.06;;;32.21;29.88
72370;BME280;60343;-32.030;115.880;2023-12-14T04:23:02;101624.59;;;32.31;29.12
72370;BME280;60343;-32.030;115.880;2023-12-14T04:25:38;101633.69;;;32.37;27.75
72370;BME280;60343;-32.030;115.880;2023-12-14T04:28:19;101615.69;;;32.34;27.11
72370;BME280;60343;-32.030;115.880;2023-12-14T04:30:54;101608.50;;;32.33;27.95
72370;BME280;60343;-32.030;115.880;2023-12-14T04:33:29;101619.88;;;32.51;27.52
72370;BME280;60343;-32.030;115.880;2023-12-14T04:36:04;101615.09;;;32.75;27.40
72370;BME280;60343;-32.030;115.880;2023-12-14T04:38:41;101614.94;;;32.85;27.46
72370;BME280;60343;-32.030;115.880;2023-12-14T04:41:16;101603.78;;;32.90;27.41
72370;BME280;60343;-32.030;115.880;2023-12-14T04:43:57;101607.06;;;32.92;26.42
72370;BME280;60343;-32.030;115.880;2023-12-14T04:46:32;101607.41;;;32.72;30.15
72370;BME280;60343;-32.030;115.880;2023-12-14T04:49:07;101613.56;;;32.69;33.27
72370;BME280;60343;-32.030;115.880;2023-12-14T04:51:42;101602.91;;;32.76;33.96
72370;BME280;60343;-32.030;115.880;2023-12-14T04:54:18;101595.59;;;32.61;34.87
72370;BME280;60343;-32.030;115.880;2023-12-14T04:56:53;101594.91;;;32.74;34.00
72370;BME280;60343;-32.030;115.880;2023-12-14T04:59:34;101597.88;;;32.78;32.91
72370;BME280;60343;-32.030;115.880;2023-12-14T05:02:09;101584.00;;;33.10;33.36
72370;BME280;60343;-32.030;115.880;2023-12-14T05:04:44;101587.69;;;33.06;32.75
72370;BME280;60343;-32.030;115.880;2023-12-14T05:07:19;101578.88;;;33.04;32.80
72370;BME280;60343;-32.030;115.880;2023-12-14T05:09:54;101570.47;;;32.90;33.21
72370;BME280;60343;-32.030;115.880;2023-12-14T05:12:30;101575.16;;;33.08;32.63
72370;BME280;60343;-32.030;115.880;2023-12-14T05:15:12;101586.75;;;33.29;32.04
72370;BME280;60343;-32.030;115.880;2023-12-14T05:17:47;101572.97;;;33.05;31.90
72370;BME280;60343;-32.030;115.880;2023-12-14T05:20:22;101576.19;;;32.80;32.36
72370;BME280;60343;-32.030;115.880;2023-12-14T05:22:57;101573.81;;;32.36;32.45
72370;BME280;60343;-32.030;115.880;2023-12-14T05:25:32;101564.59;;;32.22;33.11
72370;BME280;60343;-32.030;115.880;2023-12-14T05:28:08;101572.63;;;32.23;32.97
72370;BME280;60343;-32.030;115.880;2023-12-14T05:30:49;101564.50;;;32.46;33.61
72370;BME280;60343;-32.030;115.880;2023-12-14T05:33:24;101567.16;;;32.37;33.34
72370;BME280;60343;-32.030;115.880;2023-12-14T05:36:01;101567.28;;;32.46;33.20
72370;BME280;60343;-32.030;115.880;2023-12-14T05:38:39;101567.91;;;32.43;33.51
72370;BME280;60343;-32.030;115.880;2023-12-14T05:41:14;101558.00;;;32.36;33.09
72370;BME280;60343;-32.030;115.880;2023-12-14T05:43:50;101547.75;;;32.18;33.29
72370;BME280;60343;-32.030;115.880;2023-12-14T05:46:31;101558.47;;;32.01;33.32
72370;BME280;60343;-32.030;115.880;2023-12-14T05:49:06;101559.63;;;31.76;33.70
72370;BME280;60343;-32.030;115.880;2023-12-14T05:51:41;101558.41;;;31.64;34.47
72370;BME280;60343;-32.030;115.880;2023-12-14T05:54:16;101554.97;;;31.19;34.30
72370;BME280;60343;-32.030;115.880;2023-12-14T05:56:51;101554.38;;;31.27;34.58
72370;BME280;60343;-32.030;115.880;2023-12-14T05:59:26;101566.25;;;31.28;34.60
72370;BME280;60343;-32.030;115.880;2023-12-14T06:02:08;101553.31;;;31.23;34.24
72370;BME280;60343;-32.030;115.880;2023-12-14T06:04:43;101547.16;;;30.97;35.61
72370;BME280;60343;-32.030;115.880;2023-12-14T06:07:18;101547.88;;;31.13;35.44
72370;BME280;60343;-32.030;115.880;2023-12-14T06:09:53;101550.50;;;31.52;35.24
72370;BME280;60343;-32.030;115.880;2023-12-14T06:12:29;101548.16;;;31.64;34.65
72370;BME280;60343;-32.030;115.880;2023-12-14T06:15:05;101540.97;;;31.34;34.50
72370;BME280;60343;-32.030;115.880;2023-12-14T06:17:46;101538.41;;;31.43;34.79
72370;BME280;60343;-32.030;115.880;2023-12-14T06:20:21;101546.72;;;31.43;34.75
72370;BME280;60343;-32.030;115.880;2023-12-14T06:22:57;101540.22;;;31.58;34.56
72370;BME280;60343;-32.030;115.880;2023-12-14T06:25:32;101536.16;;;31.21;34.98
72370;BME280;60343;-32.030;115.880;2023-12-14T06:28:07;101539.47;;;31.23;36.16
72370;BME280;60343;-32.030;115.880;2023-12-14T06:30:42;101534.22;;;31.22;35.41
72370;BME280;60343;-32.030;115.880;2023-12-14T06:33:24;101530.63;;;31.21;35.27
72370;BME280;60343;-32.030;115.880;2023-12-14T06:35:59;101510.06;;;31.03;34.97
72370;BME280;60343;-32.030;115.880;2023-12-14T06:38:40;101523.00;;;30.74;35.69
72370;BME280;60343;-32.030;115.880;2023-12-14T06:41:21;101525.09;;;31.21;35.74
72370;BME280;60343;-32.030;115.880;2023-12-14T06:43:57;101523.97;;;30.93;35.03
72370;BME280;60343;-32.030;115.880;2023-12-14T06:46:32;101523.81;;;30.41;35.88
72370;BME280;60343;-32.030;115.880;2023-12-14T06:49:13;101508.84;;;30.52;37.26
72370;BME280;60343;-32.030;115.880;2023-12-14T06:51:48;101507.22;;;30.80;34.94
72370;BME280;60343;-32.030;115.880;2023-12-14T06:54:23;101510.69;;;30.90;35.06
72370;BME280;60343;-32.030;115.880;2023-12-14T06:56:58;101502.34;;;30.66;34.92
72370;BME280;60343;-32.030;115.880;2023-12-14T06:59:34;101497.56;;;30.77;34.93
72370;BME280;60343;-32.030;115.880;2023-12-14T07:02:10;101502.78;;;30.45;35.20
72370;BME280;60343;-32.030;115.880;2023-12-14T07:04:51;101499.56;;;30.33;36.61
72370;BME280;60343;-32.030;115.880;2023-12-14T07:07:27;101488.31;;;30.63;36.41
72370;BME280;60343;-32.030;115.880;2023-12-14T07:10:02;101496.81;;;30.66;36.18
72370;BME280;60343;-32.030;115.880;2023-12-14T07:12:37;101485.03;;;30.17;36.90
72370;BME280;60343;-32.030;115.880;2023-12-14T07:15:12;101479.06;;;30.00;36.76
72370;BME280;60343;-32.030;115.880;2023-12-14T07:17:48;101489.63;;;29.82;37.30
72370;BME280;60343;-32.030;115.880;2023-12-14T07:20:29;101479.66;;;29.87;37.13
72370;BME280;60343;-32.030;115.880;2023-12-14T07:23:04;101488.41;;;29.45;37.78
72370;BME280;60343;-32.030;115.880;2023-12-14T07:25:39;101482.44;;;29.07;38.07
72370;BME280;60343;-32.030;115.880;2023-12-14T07:28:14;101485.25;;;28.72;38.76
72370;BME280;60343;-32.030;115.880;2023-12-14T07:30:49;101483.81;;;28.59;39.51
72370;BME280;60343;-32.030;115.880;2023-12-14T07:33:25;101475.00;;;28.32;39.67
72370;BME280;60343;-32.030;115.880;2023-12-14T07:36:07;101471.06;;;28.02;39.77
72370;BME280;60343;-32.030;115.880;2023-12-14T07:38:42;101471.28;;;27.76;39.91
72370;BME280;60343;-32.030;115.880;2023-12-14T07:41:17;101475.13;;;27.69;40.03
72370;BME280;60343;-32.030;115.880;2023-12-14T07:43:55;101469.84;;;27.58;41.15
72370;BME280;60343;-32.030;115.880;2023-12-14T07:46:31;101467.09;;;27.63;40.50
72370;BME280;60343;-32.030;115.880;2023-12-14T07:49:09;101476.44;;;27.62;40.82
72370;BME280;60343;-32.030;115.880;2023-12-14T07:51:53;101468.16;;;27.52;41.08
72370;BME280;60343;-32.030;115.880;2023-12-14T07:54:29;101472.59;;;27.58;41.02
72370;BME280;60343;-32.030;115.880;2023-12-14T07:57:04;101470.38;;;27.55;41.15
72370;BME280;60343;-32.030;115.880;2023-12-14T07:59:39;101481.25;;;27.35;41.77
72370;BME280;60343;-32.030;115.880;2023-12-14T08:02:14;101473.00;;;27.29;41.67
72370;BME280;60343;-32.030;115.880;2023-12-14T08:04:49;101471.91;;;27.36;41.65
72370;BME280;60343;-32.030;115.880;2023-12-14T08:07:31;101473.28;;;27.33;42.34
72370;BME280;60343;-32.030;115.880;2023-12-14T08:10:07;101475.69;;;27.19;41.64
72370;BME280;60343;-32.030;115.880;2023-12-14T08:12:42;101471.22;;;27.08;41.58
72370;BME280;60343;-32.030;115.880;2023-12-14T08:15:19;101471.09;;;26.88;41.86
72370;BME280;60343;-32.030;115.880;2023-12-14T08:17:54;101461.69;;;26.84;41.81
72370;BME280;60343;-32.030;115.880;2023-12-14T08:20:29;101473.22;;;26.86;41.33
72370;BME280;60343;-32.030;115.880;2023-12-14T08:23:10;101470.19;;;26.82;41.76
72370;BME280;60343;-32.030;115.880;2023-12-14T08:25:45;101467.59;;;26.66;42.24
72370;BME280;60343;-32.030;115.880;2023-12-14T08:28:21;101467.91;;;26.69;41.96
72370;BME280;60343;-32.030;115.880;2023-12-14T08:30:56;101463.78;;;26.72;41.35
72370;BME280;60343;-32.030;115.880;2023-12-14T08:33:32;101466.47;;;26.62;41.58
72370;BME280;60343;-32.030;115.880;2023-12-14T08:36:07;101456.59;;;26.61;41.89
72370;BME280;60343;-32.030;115.880;2023-12-14T08:38:48;101458.47;;;26.55;41.54
72370;BME280;60343;-32.030;115.880;2023-12-14T08:41:24;101453.44;;;26.47;42.10
72370;BME280;60343;-32.030;115.880;2023-12-14T08:43:59;101446.63;;;26.55;42.17
72370;BME280;60343;-32.030;115.880;2023-12-14T08:46:40;101457.13;;;26.63;42.54
72370;BME280;60343;-32.030;115.880;2023-12-14T08:49:16;101465.19;;;26.74;42.10
72370;BME280;60343;-32.030;115.880;2023-12-14T08:51:51;101441.81;;;26.72;42.51
72370;BME280;60343;-32.030;115.880;2023-12-14T08:54:32;101452.84;;;26.77;42.84
72370;BME280;60343;-32.030;115.880;2023-12-14T08:57:08;101452.53;;;26.73;43.07
72370;BME280;60343;-32.030;115.880;2023-12-14T08:59:43;101452.50;;;26.68;43.48
72370;BME280;60343;-32.030;115.880;2023-12-14T09:02:18;101455.25;;;26.68;43.45
72370;BME280;60343;-32.030;115.880;2023-12-14T09:04:53;101454.63;;;26.61;43.51
72370;BME280;60343;-32.030;115.880;2023-12-14T09:07:29;101446.84;;;26.48;44.46
72370;BME280;60343;-32.030;115.880;2023-12-14T09:10:10;101455.63;;;26.45;44.57
72370;BME280;60343;-32.030;115.880;2023-12-14T09:12:45;101456.88;;;26.32;44.42
72370;BME280;60343;-32.030;115.880;2023-12-14T09:15:20;101455.44;;;26.25;45.06
72370;BME280;60343;-32.030;115.880;2023-12-14T09:17:55;101456.44;;;26.19;45.45
72370;BME280;60343;-32.030;115.880;2023-12-14T09:20:31;101458.56;;;26.12;45.98
72370;BME280;60343;-32.030;115.880;2023-12-14T09:23:09;101457.09;;;25.99;46.00
72370;BME280;60343;-32.030;115.880;2023-12-14T09:25:50;101462.34;;;26.05;45.82
72370;BME280;60343;-32.030;115.880;2023-12-14T09:28:26;101473.78;;;25.97;46.30
72370;BME280;60343;-32.030;115.880;2023-12-14T09:31:01;101465.97;;;25.84;47.18
72370;BME280;60343;-32.030;115.880;2023-12-14T09:33:36;101471.72;;;25.83;47.75
72370;BME280;60343;-32.030;115.880;2023-12-14T09:36:11;101463.13;;;25.74;47.97
72370;BME280;60343;-32.030;115.880;2023-12-14T09:38:47;101466.31;;;25.66;48.17
72370;BME280;60343;-32.030;115.880;2023-12-14T09:41:28;101463.69;;;25.54;48.51
72370;BME280;60343;-32.030;115.880;2023-12-14T09:44:05;101471.50;;;25.46;48.93
72370;BME280;60343;-32.030;115.880;2023-12-14T09:46:41;101472.34;;;25.46;49.00
72370;BME280;60343;-32.030;115.880;2023-12-14T09:49:18;101476.16;;;25.45;49.21
72370;BME280;60343;-32.030;115.880;2023-12-14T09:51:56;101481.63;;;25.45;49.70
72370;BME280;60343;-32.030;115.880;2023-12-14T09:54:32;101482.03;;;25.32;49.63
72370;BME280;60343;-32.030;115.880;2023-12-14T09:57:13;101486.22;;;25.18;50.18
72370;BME280;60343;-32.030;115.880;2023-12-14T09:59:53;101487.88;;;25.19;49.92
72370;BME280;60343;-32.030;115.880;2023-12-14T10:02:28;101490.56;;;25.14;50.12
72370;BME280;60343;-32.030;115.880;2023-12-14T10:05:04;101489.97;;;25.12;50.08
72370;BME280;60343;-32.030;115.880;2023-12-14T10:07:43;101493.78;;;25.11;50.17
72370;BME280;60343;-32.030;115.880;2023-12-14T10:10:19;101494.16;;;24.98;50.90
72370;BME280;60343;-32.030;115.880;2023-12-14T10:13:00;101489.50;;;24.98;50.98
72370;BME280;60343;-32.030;115.880;2023-12-14T10:15:42;101497.69;;;24.82;51.46
72370;BME280;60343;-32.030;115.880;2023-12-14T10:18:22;101508.88;;;24.80;51.44
72370;BME280;60343;-32.030;115.880;2023-12-14T10:20:58;101501.09;;;24.72;51.85
72370;BME280;60343;-32.030;115.880;2023-12-14T10:23:34;101509.06;;;24.57;52.65
72370;BME280;60343;-32.030;115.880;2023-12-14T10:26:09;101514.88;;;24.44;53.18
72370;BME280;60343;-32.030;115.880;2023-12-14T10:28:52;101522.25;;;24.43;53.68
72370;BME280;60343;-32.030;115.880;2023-12-14T10:31:28;101522.63;;;24.35;53.97
72370;BME280;60343;-32.030;115.880;2023-12-14T10:34:05;101525.69;;;24.22;54.50
72370;BME280;60343;-32.030;115.880;2023-12-14T10:36:40;101519.38;;;24.10;54.63
72370;BME280;60343;-32.030;115.880;2023-12-14T10:39:18;101527.66;;;23.98;55.05
72370;BME280;60343;-32.030;115.880;2023-12-14T10:41:54;101530.31;;;23.81;55.39
72370;BME280;60343;-32.030;115.880;2023-12-14T10:44:38;101529.59;;;23.74;55.57
72370;BME280;60343;-32.030;115.880;2023-12-14T10:47:25;101536.16;;;23.73;56.07
72370;BME280;60343;-32.030;115.880;2023-12-14T10:50:13;101537.59;;;23.64;55.71
72370;BME280;60343;-32.030;115.880;2023-12-14T10:52:49;101536.19;;;23.50;55.85
72370;BME280;60343;-32.030;115.880;2023-12-14T10:55:28;101534.31;;;23.50;55.43
72370;BME280;60343;-32.030;115.880;2023-12-14T10:58:05;101531.66;;;23.44;55.33
72370;BME280;60343;-32.030;115.880;2023-12-14T11:00:59;101531.44;;;23.34;55.50
72370;BME280;60343;-32.030;115.880;2023-12-14T11:03:36;101534.41;;;23.32;55.46
72370;BME280;60343;-32.030;115.880;2023-12-14T11:06:30;101538.22;;;23.20;55.79
72370;BME280;60343;-32.030;115.880;2023-12-14T11:09:07;101535.38;;;23.15;56.05
72370;BME280;60343;-32.030;115.880;2023-12-14T11:11:54;101539.41;;;23.12;55.96
72370;BME280;60343;-32.030;115.880;2023-12-14T11:14:31;101538.94;;;23.15;55.59
72370;BME280;60343;-32.030;115.880;2023-12-14T11:17:13;101542.88;;;23.07;55.82
72370;BME280;60343;-32.030;115.880;2023-12-14T11:19:49;101535.72;;;23.06;56.04
72370;BME280;60343;-32.030;115.880;2023-12-14T11:22:28;101539.41;;;23.00;56.21
72370;BME280;60343;-32.030;115.880;2023-12-14T11:25:04;101540.59;;;22.93;56.54
72370;BME280;60343;-32.030;115.880;2023-12-14T11:27:44;101543.44;;;22.86;56.77
72370;BME280;60343;-32.030;115.880;2023-12-14T11:30:20;101541.06;;;22.78;57.18
72370;BME280;60343;-32.030;115.880;2023-12-14T11:33:01;101548.50;;;22.71;57.41
72370;BME280;60343;-32.030;115.880;2023-12-14T11:35:36;101544.06;;;22.70;57.55
72370;BME280;60343;-32.030;115.880;2023-12-14T11:38:11;101552.94;;;22.54;57.60
72370;BME280;60343;-32.030;115.880;2023-12-14T11:40:49;101552.72;;;22.55;57.96
72370;BME280;60343;-32.030;115.880;2023-12-14T11:43:24;101550.78;;;22.44;58.21
72370;BME280;60343;-32.030;115.880;2023-12-14T11:45:59;101565.03;;;22.46;57.82
72370;BME280;60343;-32.030;115.880;2023-12-14T11:48:43;101565.38;;;22.50;58.10
72370;BME280;60343;-32.030;115.880;2023-12-14T11:51:19;101560.97;;;22.37;58.33
72370;BME280;60343;-32.030;115.880;2023-12-14T11:53:54;101570.69;;;22.33;58.36
72370;BME280;60343;-32.030;115.880;2023-12-14T11:56:30;101567.56;;;22.30;58.17
72370;BME280;60343;-32.030;115.880;2023-12-14T11:59:05;101569.38;;;22.36;57.81
72370;BME280;60343;-32.030;115.880;2023-12-14T12:01:40;101571.22;;;22.23;57.64
72370;BME280;60343;-32.030;115.880;2023-12-14T12:04:34;101574.63;;;22.19;57.41
72370;BME280;60343;-32.030;115.880;2023-12-14T12:07:09;101583.22;;;22.22;56.92
72370;BME280;60343;-32.030;115.880;2023-12-14T12:09:44;101587.56;;;22.23;56.67
72370;BME280;60343;-32.030;115.880;2023-12-14T12:12:20;101581.53;;;22.21;56.58
72370;BME280;60343;-32.030;115.880;2023-12-14T12:14:56;101571.53;;;22.15;56.96
72370;BME280;60343;-32.030;115.880;2023-12-14T12:17:32;101574.88;;;22.17;57.01
72370;BME280;60343;-32.030;115.880;2023-12-14T12:20:15;101581.53;;;22.21;56.82
72370;BME280;60343;-32.030;115.880;2023-12-14T12:22:50;101594.69;;;22.24;56.92
72370;BME280;60343;-32.030;115.880;2023-12-14T12:25:25;101590.09;;;22.25;56.81
72370;BME280;60343;-32.030;115.880;2023-12-14T12:28:00;101599.78;;;22.21;57.10
72370;BME280;60343;-32.030;115.880;2023-12-14T12:30:36;101597.06;;;22.21;57.15
72370;BME280;60343;-32.030;115.880;2023-12-14T12:33:11;101606.00;;;22.10;57.71
72370;BME280;60343;-32.030;115.880;2023-12-14T12:35:52;101606.63;;;21.94;58.33
72370;BME280;60343;-32.030;115.880;2023-12-14T12:38:27;101610.84;;;21.90;58.46
72370;BME280;60343;-32.030;115.880;2023-12-14T12:41:02;101611.16;;;21.81;58.70
72370;BME280;60343;-32.030;115.880;2023-12-14T12:43:38;101611.38;;;21.80;59.11
72370;BME280;60343;-32.030;115.880;2023-12-14T12:46:13;101615.03;;;21.92;58.93
72370;BME280;60343;-32.030;115.880;2023-12-14T12:48:48;101610.47;;;21.86;58.89
72370;BME280;60343;-32.030;115.880;2023-12-14T12:51:29;101624.38;;;21.78;59.59
72370;BME280;60343;-32.030;115.880;2023-12-14T12:54:04;101625.75;;;21.69;59.46
72370;BME280;60343;-32.030;115.880;2023-12-14T12:56:39;101619.53;;;21.62;59.96
72370;BME280;60343;-32.030;115.880;2023-12-14T12:59:15;101615.38;;;21.59;60.32
72370;BME280;60343;-32.030;115.880;2023-12-14T13:01:50;101613.31;;;21.55;60.59
72370;BME280;60343;-32.030;115.880;2023-12-14T13:04:25;101605.00;;;21.68;60.28
72370;BME280;60343;-32.030;115.880;2023-12-14T13:07:06;101608.44;;;21.81;59.79
72370;BME280;60343;-32.030;115.880;2023-12-14T13:09:42;101604.56;;;21.71;60.22